createdAt,value
2022-12-18T00:01:18.331Z,101945.75
2022-12-18T00:03:46.048Z,101951.75
2022-12-18T00:06:15.686Z,101958.25
2022-12-18T00:08:44.145Z,101962.09
2022-12-18T00:11:17.616Z,101961.28
2022-12-18T00:13:44.557Z,101967.28
2022-12-18T00:16:14.960Z,101963.72
2022-12-18T00:18:43.395Z,101970.00
2022-12-18T00:21:12.816Z,101970.81
2022-12-18T00:23:41.884Z,101975.69
2022-12-18T00:26:16.229Z,101975.69
2022-12-18T00:28:44.791Z,101972.41
2022-12-18T00:31:16.681Z,101983.88
2022-12-18T00:33:44.238Z,101975.97
2022-12-18T00:36:14.499Z,101987.72
2022-12-18T00:38:42.295Z,101981.72
2022-12-18T00:41:11.512Z,101993.44
2022-12-18T00:43:40.080Z,101994.81
2022-12-18T00:46:07.596Z,101996.44
2022-12-18T00:48:34.706Z,101996.44
2022-12-18T00:51:01.681Z,101993.69
2022-12-18T00:53:28.915Z,101997.78
2022-12-18T00:55:56.852Z,101991.50
2022-12-18T00:58:24.064Z,101983.06
2022-12-18T01:00:51.124Z,101989.63
2022-12-18T01:03:18.339Z,102005.50
2022-12-18T01:05:45.339Z,101998.09
2022-12-18T01:08:12.440Z,102000.25
2022-12-18T01:10:42.739Z,102005.44
2022-12-18T01:13:10.090Z,102005.19
2022-12-18T01:15:37.336Z,102013.38
2022-12-18T01:18:04.543Z,102009.03
2022-12-18T01:20:31.560Z,102011.78
2022-12-18T01:22:58.912Z,102010.72
2022-12-18T01:25:27.707Z,102018.38
2022-12-18T01:27:54.716Z,102022.78
2022-12-18T01:30:21.813Z,102028.81
2022-12-18T01:32:48.906Z,102029.38
2022-12-18T01:35:16.148Z,102022.03
2022-12-18T01:37:43.162Z,102023.41
2022-12-18T01:40:10.929Z,102023.97
2022-12-18T01:42:38.194Z,102024.56
2022-12-18T01:45:24.644Z,102030.56
2022-12-18T01:47:54.872Z,102020.22
2022-12-18T01:50:43.253Z,102016.44
2022-12-18T01:53:24.922Z,102021.34
2022-12-18T01:55:55.747Z,102016.44
2022-12-18T01:58:50.636Z,102011.28
2022-12-18T02:01:18.038Z,102019.72
2022-12-18T02:03:45.552Z,102017.56
2022-12-18T02:06:24.726Z,102022.47
2022-12-18T02:08:55.848Z,102017.31
2022-12-18T02:11:48.950Z,102027.97
2022-12-18T02:14:39.500Z,102032.63
2022-12-18T02:17:15.158Z,102040.53
2022-12-18T02:19:55.231Z,102033.16
2022-12-18T02:22:25.216Z,102045.47
2022-12-18T02:25:01.385Z,102052.25
2022-12-18T02:27:31.984Z,102044.38
2022-12-18T02:30:02.905Z,102044.38
2022-12-18T02:32:35.512Z,102046.59
2022-12-18T02:35:05.933Z,102049.34
2022-12-18T02:37:35.300Z,102049.06
2022-12-18T02:40:05.473Z,102058.63
2022-12-18T02:42:35.491Z,102059.75
2022-12-18T02:45:05.575Z,102055.94
2022-12-18T02:47:39.472Z,102050.19
2022-12-18T02:50:31.282Z,102053.22
2022-12-18T02:53:40.688Z,102045.59
2022-12-18T02:56:21.014Z,102051.59
2022-12-18T02:59:01.104Z,102047.50
2022-12-18T03:01:59.945Z,102056.50
2022-12-18T03:04:35.506Z,102061.41
2022-12-18T03:07:10.240Z,102062.25
2022-12-18T03:09:43.286Z,102056.25
2022-12-18T03:12:25.880Z,102060.06
2022-12-18T03:15:08.976Z,102069.63
2022-12-18T03:17:42.999Z,102077.25
2022-12-18T03:20:15.963Z,102069.63
2022-12-18T03:22:47.657Z,102070.47
2022-12-18T03:25:18.741Z,102066.63
2022-12-18T03:27:52.612Z,102064.47
2022-12-18T03:30:21.291Z,102065.81
2022-12-18T03:33:00.526Z,102069.66
2022-12-18T03:35:34.617Z,102060.94
2022-12-18T03:38:02.272Z,102069.91
2022-12-18T03:41:12.573Z,102068.28
2022-12-18T03:44:14.244Z,102072.38
2022-12-18T03:46:53.649Z,102084.41
2022-12-18T03:49:30.887Z,102079.75
2022-12-18T03:52:08.456Z,102085.75
2022-12-18T03:54:38.304Z,102087.41
2022-12-18T03:57:18.000Z,102088.78
2022-12-18T03:59:48.059Z,102087.13
2022-12-18T04:02:19.042Z,102089.88
2022-12-18T04:04:49.182Z,102087.97
2022-12-18T04:07:18.297Z,102086.06
2022-12-18T04:09:47.197Z,102087.97
2022-12-18T04:12:15.498Z,102094.50
2022-12-18T04:14:43.012Z,102094.50
2022-12-18T04:17:10.815Z,102096.69
2022-12-18T04:19:38.033Z,102092.03
2022-12-18T04:22:05.205Z,102102.69
2022-12-18T04:24:39.709Z,102093.97
2022-12-18T04:27:17.257Z,102097.53
2022-12-18T04:29:48.810Z,102101.06
2022-12-18T04:32:18.721Z,102100.78
2022-12-18T04:34:45.876Z,102101.91
2022-12-18T04:37:12.901Z,102105.44
2022-12-18T04:39:40.266Z,102099.72
2022-12-18T04:42:14.566Z,102097.81
2022-12-18T04:44:41.680Z,102097.25
2022-12-18T04:47:08.828Z,102109.78
2022-12-18T04:49:35.892Z,102110.88
2022-12-18T04:52:02.996Z,102116.06
2022-12-18T04:54:30.101Z,102108.72
2022-12-18T04:56:57.253Z,102117.44
2022-12-18T04:59:24.287Z,102125.34
2022-12-18T05:01:51.703Z,102129.66
2022-12-18T05:04:18.971Z,102131.84
2022-12-18T05:06:47.081Z,102124.78
2022-12-18T05:09:14.320Z,102132.41
2022-12-18T05:11:41.461Z,102125.31
2022-12-18T05:14:08.438Z,102138.69
2022-12-18T05:16:35.453Z,102135.41
2022-12-18T05:19:02.491Z,102129.94
2022-12-18T05:21:29.677Z,102141.13
2022-12-18T05:23:56.815Z,102142.75
2022-12-18T05:26:23.910Z,102149.28
2022-12-18T05:28:50.996Z,102140.84
2022-12-18T05:31:18.214Z,102147.09
2022-12-18T05:33:45.478Z,102142.22
2022-12-18T05:36:12.837Z,102143.03
2022-12-18T05:38:40.760Z,102143.31
2022-12-18T05:41:09.134Z,102155.03
2022-12-18T05:43:38.715Z,102157.47
2022-12-18T05:46:14.159Z,102157.44
2022-12-18T05:48:43.024Z,102161.56
2022-12-18T05:51:13.557Z,102166.16
2022-12-18T05:53:40.815Z,102163.44
2022-12-18T05:56:11.151Z,102165.34
2022-12-18T05:58:38.850Z,102165.09
2022-12-18T06:01:17.926Z,102165.09
2022-12-18T06:03:45.874Z,102168.34
2022-12-18T06:06:23.371Z,102184.16
2022-12-18T06:08:51.622Z,102190.44
2022-12-18T06:11:22.538Z,102201.91
2022-12-18T06:13:58.178Z,102207.06
2022-12-18T06:16:26.683Z,102206.00
2022-12-18T06:18:53.901Z,102210.09
2022-12-18T06:21:20.923Z,102209.81
2022-12-18T06:23:48.121Z,102212.56
2022-12-18T06:26:15.482Z,102206.84
2022-12-18T06:28:43.050Z,102209.84
2022-12-18T06:31:10.875Z,102218.56
2022-12-18T06:33:39.549Z,102222.69
2022-12-18T06:36:12.668Z,102236.03
2022-12-18T06:38:42.440Z,102232.22
2022-12-18T06:41:18.900Z,102237.94
2022-12-18T06:43:46.340Z,102243.41
2022-12-18T06:46:14.294Z,102248.31
2022-12-18T06:48:41.884Z,102253.50
2022-12-18T06:51:09.065Z,102254.03
2022-12-18T06:53:36.325Z,102251.88
2022-12-18T06:56:09.926Z,102256.50
2022-12-18T06:58:38.763Z,102270.41
2022-12-18T07:01:07.898Z,102275.31
2022-12-18T07:03:35.432Z,102270.69
2022-12-18T07:06:02.833Z,102270.94
2022-12-18T07:08:31.222Z,102276.09
2022-12-18T07:10:58.478Z,102275.75
2022-12-18T07:13:25.493Z,102274.31
2022-12-18T07:15:52.570Z,102281.63
2022-12-18T07:18:19.713Z,102281.03
2022-12-18T07:20:46.662Z,102291.09
2022-12-18T07:23:14.820Z,102283.31
2022-12-18T07:25:41.971Z,102290.66
2022-12-18T07:28:14.135Z,102295.50
2022-12-18T07:30:44.271Z,102290.66
2022-12-18T07:33:11.274Z,102292.97
2022-12-18T07:35:38.411Z,102299.94
2022-12-18T07:38:05.412Z,102307.25
2022-12-18T07:40:32.601Z,102309.84
2022-12-18T07:42:59.768Z,102301.06
2022-12-18T07:45:26.936Z,102305.25
2022-12-18T07:47:53.996Z,102314.75
2022-12-18T07:50:21.109Z,102302.16
2022-12-18T07:52:48.125Z,102306.44
2022-12-18T07:55:15.084Z,102302.63
2022-12-18T07:57:50.524Z,102305.91
2022-12-18T08:00:18.828Z,102315.28
2022-12-18T08:02:45.942Z,102310.19
2022-12-18T08:05:13.304Z,102314.19
2022-12-18T08:07:40.732Z,102327.03
2022-12-18T08:10:08.429Z,102335.03
2022-12-18T08:12:35.492Z,102342.97
2022-12-18T08:15:02.780Z,102342.56
2022-12-18T08:17:30.152Z,102343.59
2022-12-18T08:19:57.229Z,102349.31
2022-12-18T08:22:24.480Z,102358.72
2022-12-18T08:24:51.605Z,102355.50
2022-12-18T08:27:29.261Z,102358.09
2022-12-18T08:29:57.662Z,102363.09
2022-12-18T08:32:26.445Z,102362.81
2022-12-18T08:34:53.595Z,102365.56
2022-12-18T08:37:20.759Z,102361.31
2022-12-18T08:39:47.826Z,102348.94
2022-12-18T08:42:35.162Z,102356.16
2022-12-18T08:45:02.971Z,102357.28
2022-12-18T08:47:30.001Z,102365.31
2022-12-18T08:49:57.091Z,102373.94
2022-12-18T08:52:24.017Z,102377.50
2022-12-18T08:54:51.108Z,102376.06
2022-12-18T08:57:18.072Z,102377.41
2022-12-18T08:59:45.112Z,102375.09
2022-12-18T09:02:12.974Z,102380.94
2022-12-18T09:04:41.755Z,102389.75
2022-12-18T09:07:11.037Z,102386.81
2022-12-18T09:09:38.453Z,102388.47
2022-12-18T09:12:05.721Z,102388.63
2022-12-18T09:14:32.769Z,102393.56
2022-12-18T09:16:59.931Z,102394.59
2022-12-18T09:19:27.085Z,102388.50
2022-12-18T09:21:54.101Z,102383.22
2022-12-18T09:24:24.106Z,102379.78
2022-12-18T09:26:57.846Z,102382.66
2022-12-18T09:29:25.238Z,102381.91
2022-12-18T09:31:52.340Z,102384.03
2022-12-18T09:34:19.577Z,102382.81
2022-12-18T09:36:46.552Z,102392.19
2022-12-18T09:39:16.001Z,102390.47
2022-12-18T09:42:04.436Z,102388.44
2022-12-18T09:44:44.488Z,102387.72
2022-12-18T09:47:24.745Z,102387.63
2022-12-18T09:49:56.353Z,102380.06
2022-12-18T09:52:41.798Z,102383.53
2022-12-18T09:55:37.464Z,102383.72
2022-12-18T09:58:11.070Z,102383.03
2022-12-18T10:00:38.161Z,102383.00
2022-12-18T10:03:12.059Z,102381.66
2022-12-18T10:05:52.858Z,102380.75
2022-12-18T10:08:31.260Z,102369.91
2022-12-18T10:11:13.303Z,102376.22
2022-12-18T10:13:56.044Z,102375.00
2022-12-18T10:16:48.971Z,102365.41
2022-12-18T10:19:29.505Z,102370.59
2022-12-18T10:22:10.856Z,102364.91
2022-12-18T10:24:49.799Z,102366.13
2022-12-18T10:27:19.487Z,102364.84
2022-12-18T10:29:47.408Z,102360.44
2022-12-18T10:32:20.974Z,102360.97
2022-12-18T10:34:52.963Z,102355.28
2022-12-18T10:37:28.025Z,102355.69
2022-12-18T10:40:25.377Z,102359.78
2022-12-18T10:43:20.427Z,102347.88
2022-12-18T10:46:01.339Z,102355.69
2022-12-18T10:48:29.888Z,102359.03
2022-12-18T10:51:14.144Z,102355.28
2022-12-18T10:53:52.722Z,102352.88
2022-12-18T10:56:22.349Z,102352.88
2022-12-18T10:59:07.767Z,102351.66
2022-12-18T11:01:58.366Z,102347.94
2022-12-18T11:04:36.423Z,102346.69
2022-12-18T11:07:05.143Z,102333.84
2022-12-18T11:09:37.006Z,102337.13
2022-12-18T11:12:19.898Z,102336.91
2022-12-18T11:14:54.997Z,102323.97
2022-12-18T11:17:25.908Z,102327.53
2022-12-18T11:19:59.535Z,102326.69
2022-12-18T11:22:29.204Z,102324.88
2022-12-18T11:27:58.040Z,102322.22
2022-12-18T11:30:34.981Z,102327.44
2022-12-18T11:33:08.323Z,102324.44
2022-12-18T11:35:38.401Z,102321.84
2022-12-18T11:38:14.161Z,102328.47
2022-12-18T11:40:45.230Z,102314.47
2022-12-18T11:43:35.301Z,102312.34
2022-12-18T11:46:08.538Z,102314.16
2022-12-18T11:48:43.494Z,102319.69
2022-12-18T11:51:40.821Z,102316.22
2022-12-18T11:54:15.827Z,102314.75
2022-12-18T11:56:57.726Z,102313.50
2022-12-18T11:59:40.360Z,102323.94
2022-12-18T12:02:32.147Z,102319.75
2022-12-18T12:05:37.067Z,102325.53
2022-12-18T12:08:10.897Z,102328.00
2022-12-18T12:11:10.287Z,102326.31
2022-12-18T12:13:50.381Z,102335.03
2022-12-18T12:16:46.178Z,102331.97
2022-12-18T12:19:18.930Z,102325.50
2022-12-18T12:22:07.709Z,102331.38
2022-12-18T12:24:58.969Z,102322.56
2022-12-18T12:27:45.032Z,102324.50
2022-12-18T12:30:28.250Z,102330.28
2022-12-18T12:33:19.215Z,102328.16
2022-12-18T12:36:13.637Z,102326.16
2022-12-18T12:38:52.317Z,102328.53
2022-12-18T12:41:46.812Z,102334.75
2022-12-18T12:44:27.778Z,102337.72
2022-12-18T12:47:01.103Z,102336.84
2022-12-18T12:49:37.551Z,102337.59
2022-12-18T12:52:15.191Z,102332.47
2022-12-18T12:54:43.370Z,102327.28
2022-12-18T12:57:16.370Z,102326.09
2022-12-18T12:59:59.311Z,102333.41
2022-12-18T13:02:50.943Z,102328.16
2022-12-18T13:05:19.112Z,102332.94
2022-12-18T13:07:55.792Z,102325.81
2022-12-18T13:10:32.881Z,102331.34
2022-12-18T13:13:10.609Z,102326.97
2022-12-18T13:15:39.874Z,102325.53
2022-12-18T13:18:09.953Z,102329.84
2022-12-18T13:20:45.610Z,102330.88
2022-12-18T13:23:25.594Z,102333.09
2022-12-18T13:25:59.947Z,102329.94
2022-12-18T13:28:48.741Z,102330.03
2022-12-18T13:31:41.960Z,102335.09
2022-12-18T13:34:27.503Z,102335.84
2022-12-18T13:37:00.703Z,102349.00
2022-12-18T13:39:35.766Z,102345.81
2022-12-18T13:42:05.818Z,102352.66
2022-12-18T13:44:41.799Z,102347.88
2022-12-18T13:47:38.566Z,102341.69
2022-12-18T13:50:29.860Z,102344.00
2022-12-18T13:53:04.260Z,102335.00
2022-12-18T13:55:31.206Z,102333.78
2022-12-18T13:58:06.260Z,102346.25
2022-12-18T14:00:33.550Z,102348.09
2022-12-18T14:03:01.648Z,102347.91
2022-12-18T14:05:35.570Z,102344.69
2022-12-18T14:08:11.305Z,102349.25
2022-12-18T14:10:47.731Z,102350.69
2022-12-18T14:13:32.877Z,102357.94
2022-12-18T14:16:03.909Z,102354.59
2022-12-18T14:18:47.378Z,102361.16
2022-12-18T14:21:38.949Z,102367.59
2022-12-18T14:24:21.837Z,102366.69
2022-12-18T14:26:51.363Z,102370.88
2022-12-18T14:29:30.536Z,102374.44
2022-12-18T14:32:18.303Z,102368.22
2022-12-18T14:34:57.417Z,102370.38
2022-12-18T14:37:27.332Z,102381.09
2022-12-18T14:39:56.480Z,102376.91
2022-12-18T14:42:23.762Z,102387.41
2022-12-18T14:45:12.525Z,102393.22
2022-12-18T14:47:37.945Z,102393.94
2022-12-18T14:50:13.362Z,102394.34
2022-12-18T14:52:40.551Z,102392.91
2022-12-18T14:55:20.199Z,102396.41
2022-12-18T14:57:52.537Z,102395.28
2022-12-18T15:00:23.573Z,102393.97
2022-12-18T15:02:56.860Z,102400.75
2022-12-18T15:05:30.321Z,102405.28
2022-12-18T15:08:00.640Z,102404.06
2022-12-18T15:10:35.485Z,102403.63
2022-12-18T15:13:03.747Z,102401.75
2022-12-18T15:15:44.500Z,102401.94
2022-12-18T15:18:11.808Z,102410.50
2022-12-18T15:21:00.096Z,102409.75
2022-12-18T15:23:48.899Z,102417.53
2022-12-18T15:26:18.143Z,102417.09
2022-12-18T15:28:57.208Z,102421.34
2022-12-18T15:31:26.509Z,102422.78
2022-12-18T15:33:54.050Z,102419.56
2022-12-18T15:36:26.392Z,102422.09
2022-12-18T15:39:04.032Z,102417.50
2022-12-18T15:41:35.803Z,102426.03
2022-12-18T15:44:21.828Z,102420.88
2022-12-18T15:46:49.159Z,102425.13
2022-12-18T15:49:16.166Z,102424.34
2022-12-18T15:51:43.691Z,102434.06
2022-12-18T15:54:17.208Z,102439.59
2022-12-18T15:57:03.105Z,102438.25
2022-12-18T15:59:30.197Z,102437.97
2022-12-18T16:01:58.027Z,102438.81
2022-12-18T16:04:26.341Z,102446.78
2022-12-18T16:09:40.634Z,102453.13
2022-12-18T16:12:15.309Z,102449.56
2022-12-18T16:14:42.314Z,102456.41
2022-12-18T16:17:12.790Z,102455.59
2022-12-18T16:19:40.504Z,102454.78
2022-12-18T16:22:21.663Z,102462.69
2022-12-18T16:24:49.356Z,102466.81
2022-12-18T16:27:16.471Z,102471.00
2022-12-18T16:29:43.852Z,102464.44
2022-12-18T16:32:15.549Z,102466.44
2022-12-18T16:34:44.809Z,102467.00
2022-12-18T16:37:13.849Z,102470.88
2022-12-18T16:39:42.291Z,102476.09
2022-12-18T16:42:17.618Z,102466.81
2022-12-18T16:44:45.841Z,102481.63
2022-12-18T16:47:15.116Z,102473.69
2022-12-18T16:49:46.072Z,102481.97
2022-12-18T16:52:14.405Z,102481.44
2022-12-18T16:54:41.414Z,102481.19
2022-12-18T16:57:11.796Z,102484.22
2022-12-18T16:59:38.775Z,102491.09
2022-12-18T17:02:06.331Z,102493.53
2022-12-18T17:04:35.136Z,102489.66
2022-12-18T17:07:02.187Z,102492.41
2022-12-18T17:09:29.232Z,102491.34
2022-12-18T17:11:56.394Z,102494.09
2022-12-18T17:14:25.375Z,102499.09
2022-12-18T17:17:20.396Z,102496.34
2022-12-18T17:19:44.231Z,102502.38
2022-12-18T17:22:11.561Z,102505.13
2022-12-18T17:24:38.784Z,102505.94
2022-12-18T17:27:05.974Z,102517.72
2022-12-18T17:29:33.158Z,102517.97
2022-12-18T17:32:00.552Z,102520.69
2022-12-18T17:34:28.326Z,102519.28
2022-12-18T17:36:55.988Z,102520.09
2022-12-18T17:39:23.132Z,102525.03
2022-12-18T17:41:50.740Z,102515.19
2022-12-18T17:44:18.612Z,102520.94
2022-12-18T17:46:46.395Z,102524.53
2022-12-18T17:49:14.736Z,102525.88
2022-12-18T17:51:45.112Z,102526.88
2022-12-18T17:54:12.314Z,102527.84
2022-12-18T17:56:39.857Z,102530.53
2022-12-18T17:59:07.330Z,102532.88
2022-12-18T18:01:38.375Z,102530.41
2022-12-18T18:04:08.244Z,102536.66
2022-12-18T18:06:36.268Z,102535.59
2022-12-18T18:09:06.497Z,102540.84
2022-12-18T18:11:57.763Z,102541.66
2022-12-18T18:14:25.915Z,102540.03
2022-12-18T18:16:54.771Z,102540.28
2022-12-18T18:19:25.238Z,102545.75
2022-12-18T18:21:53.927Z,102548.84
2022-12-18T18:24:23.694Z,102554.59
2022-12-18T18:26:51.000Z,102552.41
2022-12-18T18:29:27.844Z,102562.56
2022-12-18T18:31:56.555Z,102564.50
2022-12-18T18:34:26.814Z,102559.09
2022-12-18T18:36:54.396Z,102556.56
2022-12-18T18:39:21.535Z,102555.06
2022-12-18T18:41:49.095Z,102556.22
2022-12-18T18:44:17.785Z,102560.13
2022-12-18T18:46:45.278Z,102559.91
2022-12-18T18:49:13.938Z,102570.84
2022-12-18T18:51:42.519Z,102565.63
2022-12-18T18:54:10.303Z,102573.59
2022-12-18T18:57:04.000Z,102579.06
2022-12-18T18:59:31.276Z,102578.53
2022-12-18T19:02:04.277Z,102580.44
2022-12-18T19:04:33.892Z,102579.09
2022-12-18T19:07:01.304Z,102585.41
2022-12-18T19:09:28.631Z,102591.69
2022-12-18T19:12:14.763Z,102597.44
2022-12-18T19:14:42.446Z,102593.31
2022-12-18T19:17:10.913Z,102600.72
2022-12-18T19:19:38.037Z,102609.47
2022-12-18T19:22:05.332Z,102604.00
2022-12-18T19:24:32.452Z,102604.56
2022-12-18T19:26:59.408Z,102605.91
2022-12-18T19:29:26.368Z,102610.00
2022-12-18T19:31:54.788Z,102614.38
2022-12-18T19:34:21.764Z,102620.72
2022-12-18T19:36:48.969Z,102610.28
2022-12-18T19:39:18.071Z,102614.31
2022-12-18T19:41:46.753Z,102622.84
2022-12-18T19:44:16.064Z,102620.88
2022-12-18T19:46:46.911Z,102619.47
2022-12-18T19:49:18.114Z,102616.72
2022-12-18T19:51:45.665Z,102622.47
2022-12-18T19:54:17.088Z,102626.53
2022-12-18T19:56:45.166Z,102629.00
2022-12-18T19:59:12.728Z,102627.09
2022-12-18T20:01:39.953Z,102630.66
2022-12-18T20:04:09.077Z,102630.34
2022-12-18T20:06:53.534Z,102636.38
2022-12-18T20:09:22.146Z,102635.81
2022-12-18T20:11:50.166Z,102641.00
2022-12-18T20:14:22.788Z,102635.81
2022-12-18T20:16:53.729Z,102639.91
2022-12-18T20:19:24.957Z,102643.75
2022-12-18T20:21:52.116Z,102637.69
2022-12-18T20:24:19.424Z,102640.44
2022-12-18T20:26:46.604Z,102645.66
2022-12-18T20:29:13.790Z,102637.19
2022-12-18T20:31:41.197Z,102638.50
2022-12-18T20:34:08.446Z,102639.88
2022-12-18T20:36:38.610Z,102643.72
2022-12-18T20:39:07.648Z,102638.50
2022-12-18T20:41:37.665Z,102633.31
2022-12-18T20:44:21.665Z,102638.75
2022-12-18T20:46:59.528Z,102632.47
2022-12-18T20:49:27.950Z,102636.63
2022-12-18T20:51:58.187Z,102635.78
2022-12-18T20:54:27.417Z,102643.16
2022-12-18T20:56:54.981Z,102645.09
2022-12-18T20:59:23.385Z,102649.78
2022-12-18T21:01:52.418Z,102650.09
2022-12-18T21:04:19.866Z,102654.22
2022-12-18T21:06:53.346Z,102655.88
2022-12-18T21:09:24.066Z,102664.91
2022-12-18T21:12:10.368Z,102664.41
2022-12-18T21:14:41.625Z,102664.44
2022-12-18T21:17:09.408Z,102665.88
2022-12-18T21:19:36.688Z,102668.66
2022-12-18T21:22:05.017Z,102673.06
2022-12-18T21:24:33.001Z,102668.16
2022-12-18T21:27:00.310Z,102672.34
2022-12-18T21:29:27.872Z,102672.59
2022-12-18T21:31:55.394Z,102667.72
2022-12-18T21:34:27.746Z,102674.78
2022-12-18T21:36:57.451Z,102681.34
2022-12-18T21:39:26.540Z,102658.88
2022-12-18T21:42:12.578Z,102672.78
2022-12-18T21:44:41.840Z,102684.00
2022-12-18T21:47:21.488Z,102695.16
2022-12-18T21:49:49.834Z,102694.88
2022-12-18T21:52:17.399Z,102686.16
2022-12-18T21:54:44.367Z,102679.34
2022-12-18T21:57:13.629Z,102679.34
2022-12-18T21:59:42.697Z,102682.59
2022-12-18T22:02:19.781Z,102677.44
2022-12-18T22:04:48.130Z,102685.06
2022-12-18T22:07:16.728Z,102685.88
2022-12-18T22:09:43.826Z,102680.97
2022-12-18T22:12:13.885Z,102683.44
2022-12-18T22:14:41.087Z,102683.44
2022-12-18T22:17:08.238Z,102685.34
2022-12-18T22:19:42.615Z,102679.63
2022-12-18T22:22:10.326Z,102685.63
2022-12-18T22:24:37.431Z,102681.81
2022-12-18T22:27:04.642Z,102684.84
2022-12-18T22:29:50.414Z,102682.91
2022-12-18T22:32:17.841Z,102676.88
2022-12-18T22:35:06.937Z,102678.81
2022-12-18T22:37:37.024Z,102679.09
2022-12-18T22:40:06.070Z,102686.72
2022-12-18T22:42:34.475Z,102678.53
2022-12-18T22:45:01.544Z,102675.81
2022-12-18T22:47:30.426Z,102674.72
2022-12-18T22:49:58.404Z,102669.53
2022-12-18T22:52:25.876Z,102667.63
2022-12-18T22:54:54.433Z,102667.63
2022-12-18T22:57:22.822Z,102675.53
2022-12-18T22:59:51.094Z,102677.69
2022-12-18T23:02:19.286Z,102673.88
2022-12-18T23:04:47.810Z,102668.41
2022-12-18T23:07:16.247Z,102662.69
2022-12-18T23:09:43.267Z,102672.50
2022-12-18T23:12:15.717Z,102667.03
2022-12-18T23:14:42.737Z,102665.09
2022-12-18T23:17:10.158Z,102667.28
2022-12-18T23:19:37.503Z,102667.84
2022-12-18T23:22:10.092Z,102665.38
2022-12-18T23:24:38.863Z,102656.63
2022-12-18T23:27:06.523Z,102661.53
2022-12-18T23:29:38.517Z,102661.53
2022-12-18T23:32:05.581Z,102666.22
2022-12-18T23:34:32.643Z,102670.88
2022-12-18T23:37:01.268Z,102669.75
2022-12-18T23:39:29.627Z,102666.50
2022-12-18T23:42:00.969Z,102671.16
2022-12-18T23:44:28.364Z,102667.38
2022-12-18T23:46:55.644Z,102664.91
2022-12-18T23:49:23.440Z,102668.19
2022-12-18T23:51:50.900Z,102671.72
2022-12-18T23:54:18.935Z,102669.84
2022-12-18T23:56:55.445Z,102667.09
2022-12-18T23:59:25.457Z,102665.19
